Flight Track Log - Related Links

Times and Time Zones

All times are in EST time to prevent confusion due to time zone crossing. See the N173DS flight status page for this flight to view local times or setup timezone preferences in your user account.

Time Position Orientation Groundspeed Altitude Reporting Facility
EST Latitude Longitude Course Direction KTS MPH feet Rate Location/Type
Sat 07:55:48 PM 25.9089 -80.2683 83° East 129 148 500  Level Miami Center
Sat 07:56:43 PM 25.9144 -80.2156 83° East 204 235 2,000 1,293 Climbing Miami Center
Sat 07:57:44 PM 25.9428 -80.1678 57° Northeast 234 269 3,000 1,230 Climbing Miami Center
Sat 07:58:45 PM 25.9808 -80.2311 304° West 279 321 4,500 1,655 Climbing Miami Center
Sat 07:59:11 PM 25.9864 -80.2592 282° West 269 310 5,400 2,164 Climbing Miami Center
Sat 07:59:46 PM 25.9872 -80.3144 271° West 266 306 6,700 2,300 Climbing Miami Center
Sat 08:00:11 PM 25.9950 -80.3447 286° West 269 310 7,700 2,400 Climbing Miami Center
Sat 08:01:11 PM 26.0033 -80.4306 276° West 283 326 10,100 2,750 Climbing Miami Center
Sat 08:02:11 PM 26.0136 -80.5233 277° West 296 341 13,200 2,950 Climbing Miami Center
Sat 08:03:11 PM 26.0594 -80.6103 300° West 309 356 16,000 2,900 Climbing Miami Center
Sat 08:04:11 PM 26.1328 -80.6844 318° Northwest 328 377 19,000 2,800 Climbing Miami Center
Sat 08:05:11 PM 26.2058 -80.7561 319° Northwest 339 390 21,600 2,300 Climbing Miami Center
Sat 08:06:11 PM 26.2689 -80.8231 316° Northwest 351 404 23,600 2,100 Climbing Miami Center
Sat 08:07:11 PM 26.3522 -80.9092 317° Northwest 361 415 25,800 1,950 Climbing Miami Center
Sat 08:08:11 PM 26.4314 -80.9839 320° Northwest 389 448 27,500 1,650 Climbing Miami Center
Sat 08:09:11 PM 26.5403 -81.0528 330° Northwest 409 471 29,100 850 Climbing Miami Center
Sat 08:10:11 PM 26.6467 -81.1239 329° Northwest 433 498 29,200  Climbing Miami Center
Sat 08:11:11 PM 26.7492 -81.1903 330° Northwest 453 521 29,100 150 Descending Miami Center
Sat 08:12:11 PM 26.8597 -81.2642 329° Northwest 461 531 29,500 800 Climbing Miami Center
Sat 08:13:11 PM 26.9844 -81.3458 330° Northwest 467 537 30,700 1,350 Climbing Miami Center
Sat 08:14:11 PM 27.0969 -81.4225 329° Northwest 472 543 32,200 1,750 Climbing Miami Center
Sat 08:15:11 PM 27.2114 -81.4969 330° Northwest 472 543 34,200 2,100 Climbing Miami Center
Sat 08:16:11 PM 27.3056 -81.5617 329° Northwest 455 524 36,400 1,950 Climbing Miami Center
Sat 08:17:11 PM 27.4097 -81.6289 330° Northwest 442 509 38,100 1,600 Climbing Miami Center
Sat 08:18:11 PM 27.5239 -81.7064 329° Northwest 433 498 39,600 950 Climbing Miami Center
Sat 08:19:11 PM 27.6261 -81.7739 330° Northwest 433 498 40,000 124 Climbing Miami Center
Sat 08:21:25 PM 27.8647 -81.9278 330° Northwest 467 537 40,000  Level Jacksonville Center
Sat 08:22:25 PM 27.9800 -82.0067 329° Northwest 478 550 40,000  Level Jacksonville Center
Sat 08:23:25 PM 28.0911 -82.0808 330° Northwest 478 550 40,000 500 Level Jacksonville Center
Sat 08:24:25 PM 28.2061 -82.1531 331° Northwest 473 544 41,000 1,450 Climbing Jacksonville Center
Sat 08:25:25 PM 28.3108 -82.2206 330° Northwest 459 528 42,900 1,000 Climbing Jacksonville Center
Sat 08:26:25 PM 28.4178 -82.2858 332° Northwest 440 506 43,000 50 Climbing Jacksonville Center
Sat 08:27:25 PM 28.5244 -82.3561 330° Northwest 440 506 43,000  Level Jacksonville Center
Sat 08:28:25 PM 28.6292 -82.4219 331° Northwest 440 506 43,000  Level Jacksonville Center
Sat 08:29:25 PM 28.7461 -82.4994 330° Northwest 440 506 43,000  Level Jacksonville Center
Sat 08:30:25 PM 28.8550 -82.5678 331° Northwest 440 506 43,000  Level Jacksonville Center
Sat 08:31:25 PM 28.9636 -82.6364 331° Northwest 440 506 43,000  Level Jacksonville Center
Sat 08:32:25 PM 29.0703 -82.7072 330° Northwest 440 506 43,000  Level Jacksonville Center
Sat 08:33:25 PM 29.1789 -82.7761 331° Northwest 440 506 43,000  Level Jacksonville Center
Sat 08:34:25 PM 29.2853 -82.8472 330° Northwest 440 506 43,000  Level Jacksonville Center
Sat 08:35:25 PM 29.3917 -82.9164 330° Northwest 440 506 43,000  Level Jacksonville Center
Sat 08:36:25 PM 29.5067 -82.9903 331° Northwest 440 506 43,000  Level Jacksonville Center
Sat 08:37:25 PM 29.6150 -83.0597 331° Northwest 447 514 43,000  Level Jacksonville Center
Sat 08:38:25 PM 29.7361 -83.1150 338° Northwest 447 514 43,000  Level Jacksonville Center
Sat 08:39:25 PM 29.8508 -83.1681 338° Northwest 454 522 43,000  Level Jacksonville Center
Sat 08:40:25 PM 29.9697 -83.2211 339° North 448 516 43,000  Level Jacksonville Center
Sat 08:41:25 PM 30.0781 -83.2719 338° Northwest 448 516 43,000  Level Jacksonville Center
Sat 08:42:25 PM 30.1947 -83.3253 338° Northwest 453 521 43,000  Level Jacksonville Center
Sat 08:43:25 PM 30.3136 -83.3811 338° Northwest 453 521 43,000  Level Jacksonville Center
Sat 08:45:27 PM 30.5497 -83.4942 338° Northwest 438 504 43,000  Level Atlanta Center
Sat 08:46:27 PM 30.6647 -83.5489 338° Northwest 444 511 43,000  Level Atlanta Center
Sat 08:47:27 PM 30.7900 -83.6086 338° Northwest 439 505 43,000  Level Atlanta Center
Sat 08:48:27 PM 30.9050 -83.6639 338° Northwest 439 505 43,000  Level Atlanta Center
Sat 08:49:27 PM 31.0200 -83.7192 338° Northwest 439 505 43,000  Level Atlanta Center
Sat 08:50:27 PM 31.1347 -83.7744 338° Northwest 439 505 43,000  Level Atlanta Center
Sat 08:51:27 PM 31.2519 -83.8300 338° Northwest 439 505 43,000  Level Atlanta Center
Sat 08:52:27 PM 31.3689 -83.8881 337° Northwest 439 505 43,000  Level Atlanta Center
Sat 08:53:27 PM 31.4856 -83.9439 338° Northwest 444 511 43,000  Level Atlanta Center
Sat 08:54:27 PM 31.6131 -83.9828 345° North 456 525 43,000  Level Atlanta Center
Sat 08:55:27 PM 31.7444 -84.0094 350° North 466 536 43,000  Level Atlanta Center
Sat 08:56:27 PM 31.8739 -84.0389 349° North 471 542 43,000  Level Atlanta Center
Sat 08:57:27 PM 31.9886 -84.0633 350° North 471 542 43,000  Level Atlanta Center
Sat 08:58:27 PM 32.1181 -84.0903 350° North 466 536 43,000  Level Atlanta Center
Sat 08:59:27 PM 32.2475 -84.1200 349° North 466 536 43,000  Level Atlanta Center
Sat 09:00:27 PM 32.3747 -84.1519 348° North 466 536 43,000  Level Atlanta Center
Sat 09:01:27 PM 32.5022 -84.1767 351° North 466 536 43,000  Level Atlanta Center
Sat 09:02:27 PM 32.6272 -84.2067 349° North 461 531 43,000  Level Atlanta Center
Sat 09:03:27 PM 32.7589 -84.2364 349° North 461 531 43,000  Level Atlanta Center
Sat 09:04:27 PM 32.8861 -84.2714 347° North 467 537 43,000  Level Atlanta Center
Sat 09:05:27 PM 33.0133 -84.2989 350° North 467 537 43,000  Level Atlanta Center
Sat 09:06:27 PM 33.1406 -84.3292 349° North 467 537 43,000  Level Atlanta Center
Sat 09:07:27 PM 33.2700 -84.3569 350° North 467 537 43,000  Level Atlanta Center
Sat 09:08:27 PM 33.4075 -84.3897 349° North 467 537 43,000  Level Atlanta Center
Sat 09:09:27 PM 33.5369 -84.4178 350° North 467 537 43,000  Level Atlanta Center
Sat 09:10:27 PM 33.6642 -84.4456 350° North 456 525 43,000  Level Atlanta Center
Sat 09:11:27 PM 33.7914 -84.4761 349° North 456 525 43,000  Level Atlanta Center
Sat 09:12:27 PM 33.9164 -84.5069 348° North 461 531 43,000  Level Atlanta Center
Sat 09:13:27 PM 34.0311 -84.5350 349° North 466 536 43,000  Level Atlanta Center
Sat 09:14:27 PM 34.1667 -84.5661 349° North 481 554 43,000  Level Atlanta Center
Sat 09:15:27 PM 34.2939 -84.5944 350° North 481 554 43,000  Level Atlanta Center
Sat 09:16:27 PM 34.4400 -84.6081 356° North 481 554 43,000  Level Atlanta Center
Sat 09:17:27 PM 34.5736 -84.6189 356° North 481 554 43,000  Level Atlanta Center
Sat 09:18:27 PM 34.6881 -84.6325 354° North 469 540 43,000  Level Atlanta Center
Sat 09:19:27 PM 34.8217 -84.6436 356° North 469 540 43,000  Level Atlanta Center
Sat 09:20:27 PM 34.9572 -84.6547 356° North 479 551 43,000  Level Atlanta Center
Sat 09:21:27 PM 35.0908 -84.6658 356° North 479 551 43,000  Level Atlanta Center
Sat 09:22:27 PM 35.2242 -84.6769 356° North 479 551 43,000  Level Atlanta Center
Sat 09:23:27 PM 35.3597 -84.6881 356° North 479 551 43,000  Level Atlanta Center
Sat 09:24:27 PM 35.4953 -84.6994 356° North 479 551 43,000  Level Atlanta Center
Sat 09:25:27 PM 35.6267 -84.7106 356° North 479 551 43,000  Level Atlanta Center
Sat 09:26:27 PM 35.7603 -84.7219 356° North 479 551 43,000  Level Atlanta Center
Sat 09:27:27 PM 35.8936 -84.7358 355° North 479 551 43,000  Level Atlanta Center
Sat 09:29:15 PM 36.1275 -84.7422 359° North 479 551 43,000  Level Indianapolis Center
Sat 09:30:16 PM 36.2603 -84.7406 North 479 551 43,000  Level Indianapolis Center
Sat 09:31:17 PM 36.4186 -84.7392 360° North 475 547 43,000  Level Indianapolis Center
Sat 09:32:18 PM 36.5497 -84.7378 360° North 473 544 43,000  Level Indianapolis Center
Sat 09:33:18 PM 36.6806 -84.7369 360° North 471 542 43,000  Level Indianapolis Center
Sat 09:34:19 PM 36.8072 -84.7533 354° North 460 529 43,000  Level Indianapolis Center
Sat 09:35:20 PM 36.9333 -84.7722 353° North 456 525 43,000  Level Indianapolis Center
Sat 09:36:21 PM 37.0517 -84.7900 353° North 458 527 43,000  Level Indianapolis Center
Sat 09:37:22 PM 37.1794 -84.8075 354° North 460 529 43,000  Level Indianapolis Center
Sat 09:38:23 PM 37.3067 -84.8256 354° North 460 529 43,000  Level Indianapolis Center
Sat 09:39:24 PM 37.4539 -84.8481 353° North 456 525 43,000  Level Indianapolis Center
Sat 09:40:25 PM 37.5808 -84.8664 353° North 458 527 43,000  Level Indianapolis Center
Sat 09:41:26 PM 37.7092 -84.8847 354° North 460 529 43,000  Level Indianapolis Center
Sat 09:42:27 PM 37.8344 -84.9133 350° North 457 526 43,000  Level Indianapolis Center
Sat 09:43:28 PM 37.9575 -84.9492 347° North 454 522 43,000  Level Indianapolis Center
Sat 09:44:29 PM 38.0825 -84.9822 348° North 456 525 43,000  Level Indianapolis Center
Sat 09:45:30 PM 38.2050 -85.0172 347° North 452 520 43,000  Level Indianapolis Center
Sat 09:46:31 PM 38.3300 -85.0519 348° North 454 522 43,000  Level Indianapolis Center
Sat 09:47:32 PM 38.4539 -85.0872 347° North 456 525 43,000  Level Indianapolis Center
Sat 09:48:32 PM 38.5783 -85.1206 348° North 455 524 43,000 -149 Level Indianapolis Center
Sat 09:49:33 PM 38.7083 -85.1581 347° North 457 526 42,700 -1,082 Descending Indianapolis Center
Sat 09:50:34 PM 38.8333 -85.1950 347° North 462 532 40,800 -1,574 Descending Indianapolis Center
Sat 09:51:35 PM 38.9519 -85.2278 348° North 443 510 39,500 -1,672 Descending Indianapolis Center
Sat 09:52:36 PM 39.0661 -85.2611 347° North 423 487 37,400 -2,115 Descending Indianapolis Center
Sat 09:53:37 PM 39.1875 -85.2969 347° North 444 511 35,200 -2,164 Descending Indianapolis Center
Sat 09:54:38 PM 39.3106 -85.3314 348° North 454 522 33,000 -2,213 Descending Indianapolis Center
Sat 09:55:39 PM 39.4328 -85.3664 348° North 454 522 30,700 -1,488 Descending Indianapolis Center
Sat 09:56:39 PM 39.5550 -85.4019 347° North 455 524 30,000 -496 Descending Indianapolis Center
Sat 09:57:40 PM 39.6992 -85.4444 347° North 448 516 29,700 -885 Descending Indianapolis Center
Sat 09:58:41 PM 39.8258 -85.4817 347° North 462 532 28,200 -1,475 Descending Indianapolis Center
Sat 09:59:42 PM 39.9572 -85.5197 347° North 481 554 26,700 -1,082 Descending Indianapolis Center
Sat 10:00:43 PM 40.0875 -85.5589 347° North 485 558 26,000 -393 Descending Indianapolis Center
Sat 10:01:44 PM 40.2003 -85.6208 337° Northwest 453 521 25,900 -793 Descending Indianapolis Center
Sat 10:02:44 PM 40.2828 -85.7253 316° Northwest 420 483 24,400 -942 Descending Indianapolis Center
Sat 10:03:45 PM 40.3700 -85.8328 317° Northwest 429 494 24,000 -197 Descending Indianapolis Center
Sat 10:04:46 PM 40.4514 -85.9353 316° Northwest 415 478 24,000 -344 Level Indianapolis Center
Sat 10:05:47 PM 40.5303 -86.0342 316° Northwest 399 459 23,300 -492 Descending Indianapolis Center
Sat 10:06:48 PM 40.6058 -86.1258 317° Northwest 379 436 23,000 -1,091 Descending Indianapolis Center
Sat 10:07:48 PM 40.6906 -86.2350 316° Northwest 362 417 21,100 -1,884 Descending Indianapolis Center
Sat 10:08:49 PM 40.7661 -86.3289 317° Northwest 371 427 19,200 -1,820 Descending Indianapolis Center
Sat 10:09:50 PM 40.8414 -86.4256 316° Northwest 378 435 17,400 -1,869 Descending Indianapolis Center
Sat 10:10:51 PM 40.9150 -86.5208 316° Northwest 376 433 15,400 -1,884 Descending Indianapolis Center
Sat 10:11:51 PM 40.9872 -86.6131 316° Northwest 370 426 13,600 -1,686 Descending Indianapolis Center
Sat 10:12:52 PM 41.0564 -86.7014 316° Northwest 360 414 12,000 -1,279 Descending Indianapolis Center
Sat 10:13:53 PM 41.1194 -86.7839 315° West 341 392 11,000 -492 Descending Indianapolis Center
Sat 10:14:54 PM 41.1836 -86.8650 316° Northwest 329 379 11,000  Level Indianapolis Center
Sat 10:15:54 PM 41.2478 -86.9478 316° Northwest 325 374 11,000  Level Indianapolis Center
Sat 10:17:23 PM 41.3489 -87.0772 316° Northwest 339 390 11,000  Level Chicago Center
Sat 10:18:24 PM 41.4100 -87.1547 316° Northwest 314 361 11,000  Level Chicago Center
Sat 10:19:25 PM 41.4661 -87.2289 315° West 291 335 11,000  Level Chicago Center
Sat 10:20:26 PM 41.5417 -87.3294 315° West 313 360 11,000 -541 Level Chicago Center
Sat 10:21:27 PM 41.6050 -87.4111 316° Northwest 319 367 9,900 -1,279 Descending Chicago Center
Sat 10:22:28 PM 41.6614 -87.4844 316° Northwest 298 343 8,400 -934 Descending Chicago Center
Sat 10:23:29 PM 41.7239 -87.5103 343° North 257 296 8,000 -197 Descending Chicago Center
Sat 10:24:30 PM 41.7764 -87.5117 359° North 200 230 8,000  Level Chicago Center
Sat 10:25:31 PM 41.8311 -87.5119 360° North 195 224 8,000 -148 Level Chicago Center
Sat 10:26:32 PM 41.8789 -87.4928 17° North 195 224 7,700 -885 Descending Chicago Center
Sat 10:27:33 PM 41.9203 -87.4539 35° Northeast 195 224 6,200 -1,426 Descending Chicago Center
Sat 10:28:34 PM 41.9681 -87.4725 344° North 194 223 4,800 -1,082 Descending Chicago Center
Sat 10:29:35 PM 41.9683 -87.5564 270° West 190 219 4,000 -393 Descending Chicago Center
Sat 10:30:36 PM 41.9700 -87.6186 272° West 180 207 4,000 -49 Level Chicago Center
Sat 10:31:37 PM 41.9694 -87.6778 269° West 170 196 3,900 -492 Descending Chicago Center
Sat 10:32:38 PM 41.9692 -87.7333 270° West 160 184 3,000 -885 Descending Chicago Center
Sat 10:33:39 PM 41.9694 -87.7892 270° West 155 178 2,100 -738 Descending Chicago Center
Sat 10:34:40 PM 41.9683 -87.8353 268° West 143 165 1,500 -496 Descending Chicago Center
Sat 10:35:40 PM 41.9697 -87.8822 272° West 132 152 1,100 -400 Descending Chicago Center

Login

Don't have an account? Register now (free) for customized features, flight alerts, and more!